createdAt,value
2022-08-22T00:01:02.962Z,59.55
2022-08-22T00:02:47.465Z,49.17
2022-08-22T00:02:59.391Z,59.90
2022-08-22T00:03:10.387Z,60.03
2022-08-22T00:04:11.263Z,59.51
2022-08-22T00:06:45.919Z,59.25
2022-08-22T00:09:23.106Z,59.82
2022-08-22T00:11:56.014Z,58.45
2022-08-22T00:14:31.682Z,58.09
2022-08-22T00:17:17.185Z,57.66
2022-08-22T00:19:48.250Z,56.50
2022-08-22T00:22:24.361Z,55.35
2022-08-22T00:24:55.617Z,56.51
2022-08-22T00:27:25.649Z,56.35
2022-08-22T00:30:24.586Z,56.14
2022-08-22T00:32:56.805Z,56.54
2022-08-22T00:35:32.860Z,56.92
2022-08-22T00:37:59.996Z,55.38
2022-08-22T00:40:36.255Z,54.79
2022-08-22T00:43:08.712Z,56.41
2022-08-22T00:45:35.220Z,56.49
2022-08-22T00:48:04.737Z,54.99
2022-08-22T00:50:51.350Z,54.78
2022-08-22T00:53:30.895Z,54.40
2022-08-22T00:56:16.084Z,54.88
2022-08-22T00:58:42.581Z,56.01
2022-08-22T01:01:11.738Z,55.06
2022-08-22T01:03:44.238Z,56.26
2022-08-22T01:06:10.673Z,55.86
2022-08-22T01:08:42.295Z,57.20
2022-08-22T01:11:27.806Z,56.50
2022-08-22T01:14:04.390Z,56.09
2022-08-22T01:16:49.470Z,57.52
2022-08-22T01:19:48.905Z,58.37
2022-08-22T01:22:33.929Z,58.56
2022-08-22T01:25:26.150Z,58.35
2022-08-22T01:28:11.501Z,56.51
2022-08-22T01:30:46.979Z,58.59
2022-08-22T01:33:19.523Z,58.12
2022-08-22T01:35:59.719Z,58.44
2022-08-22T01:38:41.682Z,59.38
2022-08-22T01:41:28.853Z,59.59
2022-08-22T01:44:06.046Z,59.52
2022-08-22T01:46:47.626Z,60.01
2022-08-22T01:49:32.993Z,59.75
2022-08-22T01:52:08.385Z,60.75
2022-08-22T01:54:34.905Z,59.45
2022-08-22T01:57:02.889Z,60.67
2022-08-22T01:59:35.244Z,59.55
2022-08-22T02:02:14.563Z,60.21
2022-08-22T02:05:02.313Z,61.56
2022-08-22T02:07:48.103Z,60.90
2022-08-22T02:10:19.577Z,60.63
2022-08-22T02:12:56.896Z,59.44
2022-08-22T02:15:30.493Z,59.46
2022-08-22T02:18:01.071Z,60.03
2022-08-22T02:20:48.029Z,61.15
2022-08-22T02:23:17.265Z,61.71
2022-08-22T02:25:49.810Z,60.96
2022-08-22T02:28:22.316Z,61.60
2022-08-22T02:30:52.215Z,61.71
2022-08-22T02:33:26.746Z,60.27
2022-08-22T02:35:56.648Z,59.31
2022-08-22T02:38:32.533Z,58.80
2022-08-22T02:41:02.709Z,59.80
2022-08-22T02:43:35.893Z,60.29
2022-08-22T02:46:11.851Z,60.33
2022-08-22T02:48:48.010Z,60.11
2022-08-22T02:51:24.302Z,58.99
2022-08-22T02:53:56.646Z,59.45
2022-08-22T02:56:33.262Z,58.40
2022-08-22T02:59:02.971Z,59.34
2022-08-22T03:01:32.116Z,58.74
2022-08-22T03:04:15.338Z,58.82
2022-08-22T03:07:00.106Z,58.58
2022-08-22T03:09:32.505Z,58.04
2022-08-22T03:12:08.425Z,58.10
2022-08-22T03:14:54.969Z,57.98
2022-08-22T03:17:44.424Z,58.18
2022-08-22T03:20:13.781Z,62.16
2022-08-22T03:23:00.047Z,61.49
2022-08-22T03:25:49.191Z,62.67
2022-08-22T03:28:20.318Z,63.20
2022-08-22T03:30:58.861Z,61.80
2022-08-22T03:33:27.458Z,61.45
2022-08-22T03:36:03.641Z,61.12
2022-08-22T03:38:30.181Z,62.41
2022-08-22T03:41:08.903Z,62.40
2022-08-22T03:43:53.961Z,62.55
2022-08-22T03:46:39.190Z,62.48
2022-08-22T03:49:06.047Z,62.18
2022-08-22T03:52:02.218Z,61.05
2022-08-22T03:54:47.910Z,63.65
2022-08-22T03:57:33.228Z,63.11
2022-08-22T04:00:05.680Z,65.63
2022-08-22T04:02:50.749Z,65.11
2022-08-22T04:05:24.920Z,65.64
2022-08-22T04:08:13.011Z,66.69
2022-08-22T04:10:51.624Z,67.40
2022-08-22T04:13:21.750Z,67.14
2022-08-22T04:16:10.691Z,67.02
2022-08-22T04:19:00.625Z,66.57
2022-08-22T04:21:27.211Z,69.15
2022-08-22T04:24:12.909Z,70.95
2022-08-22T04:26:48.954Z,69.55
2022-08-22T04:29:19.509Z,71.45
2022-08-22T04:31:57.385Z,72.33
2022-08-22T04:34:42.774Z,73.52
2022-08-22T04:37:41.766Z,70.34
2022-08-22T04:40:11.426Z,75.73
2022-08-22T04:42:41.783Z,77.06
2022-08-22T04:45:18.248Z,77.34
2022-08-22T04:48:03.520Z,79.07
2022-08-22T04:50:33.870Z,83.49
2022-08-22T04:53:06.587Z,81.67
2022-08-22T04:55:33.122Z,82.32
2022-08-22T04:58:16.279Z,83.42
2022-08-22T05:01:00.810Z,86.14
2022-08-22T05:03:28.810Z,85.81
2022-08-22T05:05:57.694Z,85.43
2022-08-22T05:08:27.061Z,83.11
2022-08-22T05:10:54.529Z,84.90
2022-08-22T05:13:30.184Z,85.38
2022-08-22T05:15:59.382Z,85.68
2022-08-22T05:18:29.821Z,86.66
2022-08-22T05:20:59.095Z,87.46
2022-08-22T05:23:25.646Z,89.26
2022-08-22T05:25:54.407Z,89.41
2022-08-22T05:28:37.261Z,86.06
2022-08-22T05:31:06.269Z,69.65
2022-08-22T05:33:36.990Z,72.70
2022-08-22T05:36:26.863Z,76.27
2022-08-22T05:38:56.450Z,74.56
2022-08-22T05:41:26.053Z,71.75
2022-08-22T05:43:53.762Z,69.13
2022-08-22T05:46:27.055Z,67.44
2022-08-22T05:48:59.813Z,67.19
2022-08-22T05:51:33.338Z,67.82
2022-08-22T05:54:06.270Z,71.45
2022-08-22T05:56:45.778Z,75.59
2022-08-22T05:59:23.605Z,69.94
2022-08-22T06:01:59.064Z,67.83
2022-08-22T06:04:31.414Z,66.66
2022-08-22T06:07:09.865Z,66.24
2022-08-22T06:10:04.769Z,62.07
2022-08-22T06:12:35.694Z,62.65
2022-08-22T06:15:02.539Z,61.82
2022-08-22T06:17:42.495Z,61.37
2022-08-22T06:20:11.504Z,60.84
2022-08-22T06:22:43.878Z,64.29
2022-08-22T06:25:15.869Z,69.19
2022-08-22T06:27:43.649Z,69.92
2022-08-22T06:30:13.292Z,68.26
2022-08-22T06:32:59.140Z,69.87
2022-08-22T06:35:56.082Z,67.16
2022-08-22T06:38:29.470Z,68.90
2022-08-22T06:40:58.017Z,69.44
2022-08-22T06:43:25.029Z,77.16
2022-08-22T06:45:53.241Z,69.80
2022-08-22T06:48:21.910Z,75.09
2022-08-22T06:50:52.462Z,77.80
2022-08-22T06:53:23.310Z,76.67
2022-08-22T06:55:52.194Z,74.69
2022-08-22T06:58:21.785Z,76.56
2022-08-22T07:01:05.676Z,73.65
2022-08-22T07:03:44.878Z,69.38
2022-08-22T07:06:15.791Z,73.69
2022-08-22T07:08:42.509Z,69.99
2022-08-22T07:11:17.574Z,69.46
2022-08-22T07:13:49.345Z,68.28
2022-08-22T07:16:15.863Z,69.22
2022-08-22T07:18:47.018Z,70.94
2022-08-22T07:21:22.702Z,66.68
2022-08-22T07:23:50.059Z,62.32
2022-08-22T07:26:21.650Z,70.31
2022-08-22T07:28:51.155Z,71.03
2022-08-22T07:31:38.223Z,68.51
2022-08-22T07:34:17.110Z,68.89
2022-08-22T07:37:01.621Z,67.93
2022-08-22T07:39:35.646Z,70.91
2022-08-22T07:42:09.674Z,70.68
2022-08-22T07:44:44.670Z,74.03
2022-08-22T07:47:18.841Z,77.46
2022-08-22T07:49:56.572Z,70.55
2022-08-22T07:52:24.634Z,66.17
2022-08-22T07:54:51.095Z,66.79
2022-08-22T07:57:22.765Z,65.44
2022-08-22T07:59:52.497Z,63.79
2022-08-22T08:02:20.394Z,62.89
2022-08-22T08:04:48.738Z,64.19
2022-08-22T08:07:17.833Z,57.92
2022-08-22T08:09:46.352Z,58.84
2022-08-22T08:12:13.644Z,60.85
2022-08-22T08:14:41.663Z,59.63
2022-08-22T08:17:37.979Z,61.88
2022-08-22T08:20:15.073Z,59.14
2022-08-22T08:22:44.196Z,58.56
2022-08-22T08:25:15.579Z,59.39
2022-08-22T08:28:00.893Z,54.98
2022-08-22T08:30:46.662Z,54.99
2022-08-22T08:33:26.173Z,58.35
2022-08-22T08:36:02.996Z,55.87
2022-08-22T08:38:32.757Z,56.73
2022-08-22T08:41:02.008Z,58.22
2022-08-22T08:43:43.865Z,55.52
2022-08-22T08:46:29.169Z,55.49
2022-08-22T08:48:55.629Z,54.99
2022-08-22T08:51:33.558Z,54.60
2022-08-22T08:54:18.613Z,60.55
2022-08-22T08:57:05.677Z,58.72
2022-08-22T08:59:44.818Z,58.50
2022-08-22T09:02:33.057Z,60.78
2022-08-22T09:05:01.650Z,58.14
2022-08-22T09:07:45.758Z,58.92
2022-08-22T09:10:33.094Z,60.57
2022-08-22T09:13:11.544Z,62.06
2022-08-22T09:15:58.527Z,62.45
2022-08-22T09:18:50.105Z,56.90
2022-08-22T09:21:30.563Z,57.47
2022-08-22T09:24:16.657Z,53.11
2022-08-22T09:26:57.094Z,53.53
2022-08-22T09:29:51.398Z,56.54
2022-08-22T09:32:44.407Z,56.20
2022-08-22T09:35:13.709Z,60.16
2022-08-22T09:37:58.119Z,53.19
2022-08-22T09:40:29.241Z,56.83
2022-08-22T09:43:08.772Z,53.92
2022-08-22T09:45:41.213Z,53.40
2022-08-22T09:48:23.796Z,51.74
2022-08-22T09:51:32.702Z,50.90
2022-08-22T09:54:09.769Z,51.07
2022-08-22T09:56:48.194Z,50.84
2022-08-22T09:59:22.819Z,50.40
2022-08-22T10:02:01.372Z,51.71
2022-08-22T10:04:42.568Z,50.66
2022-08-22T10:07:32.197Z,48.37
2022-08-22T10:10:14.102Z,48.41
2022-08-22T10:12:44.824Z,48.89
2022-08-22T10:15:20.235Z,46.21
2022-08-22T10:18:02.963Z,45.90
2022-08-22T10:20:34.067Z,44.74
2022-08-22T10:23:09.524Z,47.51
2022-08-22T10:25:48.515Z,47.05
2022-08-22T10:28:18.595Z,44.16
2022-08-22T10:30:48.490Z,45.45
2022-08-22T10:33:33.820Z,44.65
2022-08-22T10:36:07.822Z,44.36
2022-08-22T10:38:48.734Z,44.79
2022-08-22T10:41:29.027Z,45.86
2022-08-22T10:44:15.782Z,44.01
2022-08-22T10:47:06.834Z,44.06
2022-08-22T10:49:51.168Z,42.21
2022-08-22T10:52:38.145Z,40.76
2022-08-22T10:55:09.906Z,43.35
2022-08-22T10:57:55.343Z,42.24
2022-08-22T11:00:38.408Z,43.63
2022-08-22T11:03:31.379Z,42.12
2022-08-22T11:06:06.694Z,42.80
2022-08-22T11:08:42.832Z,41.59
2022-08-22T11:11:12.779Z,43.45
2022-08-22T11:13:58.290Z,44.94
2022-08-22T11:16:42.141Z,45.63
2022-08-22T11:19:21.137Z,44.79
2022-08-22T11:22:00.439Z,42.07
2022-08-22T11:24:30.010Z,42.35
2022-08-22T11:27:17.600Z,41.68
2022-08-22T11:29:58.871Z,39.94
2022-08-22T11:32:46.499Z,40.56
2022-08-22T11:35:20.279Z,40.89
2022-08-22T11:38:00.713Z,39.49
2022-08-22T11:40:44.762Z,39.85
2022-08-22T11:43:20.218Z,40.00
2022-08-22T11:45:49.027Z,41.90
2022-08-22T11:48:15.565Z,42.17
2022-08-22T11:50:48.584Z,41.07
2022-08-22T11:53:27.341Z,41.99
2022-08-22T11:55:59.817Z,40.74
2022-08-22T11:58:41.056Z,39.17
2022-08-22T12:01:34.159Z,38.07
2022-08-22T12:04:01.050Z,39.04
2022-08-22T12:06:30.097Z,40.15
2022-08-22T12:08:56.586Z,40.56
2022-08-22T12:11:45.987Z,40.94
2022-08-22T12:14:26.902Z,39.78
2022-08-22T12:17:05.890Z,39.44
2022-08-22T12:20:14.990Z,40.25
2022-08-22T12:22:54.044Z,41.77
2022-08-22T12:25:29.689Z,41.44
2022-08-22T12:28:15.851Z,38.99
2022-08-22T12:30:42.411Z,39.97
2022-08-22T12:33:41.284Z,39.62
2022-08-22T12:36:43.401Z,39.60
2022-08-22T12:39:25.143Z,37.44
2022-08-22T12:42:10.243Z,40.09
2022-08-22T12:45:07.388Z,39.25
2022-08-22T12:47:36.755Z,40.21
2022-08-22T12:50:32.057Z,41.31
2022-08-22T12:53:10.625Z,40.30
2022-08-22T12:55:55.567Z,39.40
2022-08-22T12:58:40.870Z,39.76
2022-08-22T13:01:08.628Z,39.61
2022-08-22T13:03:37.778Z,40.42
2022-08-22T13:06:07.647Z,39.86
2022-08-22T13:08:43.970Z,41.24
2022-08-22T13:11:15.084Z,41.19
2022-08-22T13:13:56.378Z,42.55
2022-08-22T13:16:24.883Z,41.88
2022-08-22T13:18:54.179Z,43.16
2022-08-22T13:21:26.731Z,43.65
2022-08-22T13:23:59.886Z,43.66
2022-08-22T13:26:32.977Z,43.36
2022-08-22T13:29:24.523Z,43.85
2022-08-22T13:31:53.628Z,44.12
2022-08-22T13:34:44.826Z,43.92
2022-08-22T13:37:16.039Z,44.08
2022-08-22T13:39:45.024Z,42.66
2022-08-22T13:42:30.169Z,45.03
2022-08-22T13:44:59.194Z,44.79
2022-08-22T13:47:26.994Z,44.27
2022-08-22T13:50:04.344Z,44.64
2022-08-22T13:52:39.097Z,44.23
2022-08-22T13:55:12.167Z,43.89
2022-08-22T13:57:42.266Z,45.28
2022-08-22T14:00:11.142Z,46.53
2022-08-22T14:02:43.443Z,45.70
2022-08-22T14:05:16.088Z,47.51
2022-08-22T14:07:56.599Z,47.41
2022-08-22T14:10:28.270Z,47.29
2022-08-22T14:12:54.768Z,47.81
2022-08-22T14:15:44.986Z,48.76
2022-08-22T14:18:19.778Z,47.75
2022-08-22T14:20:47.622Z,47.74
2022-08-22T14:23:18.769Z,47.14
2022-08-22T14:25:45.344Z,48.59
2022-08-22T14:28:27.590Z,48.43
2022-08-22T14:31:01.878Z,49.08
2022-08-22T14:33:35.185Z,50.16
2022-08-22T14:36:04.413Z,48.87
2022-08-22T14:38:35.198Z,49.21
2022-08-22T14:41:13.446Z,48.46
2022-08-22T14:43:49.751Z,49.49
2022-08-22T14:46:26.951Z,48.82
2022-08-22T14:49:14.085Z,48.62
2022-08-22T14:51:55.995Z,48.81
2022-08-22T14:54:28.982Z,49.30
2022-08-22T14:56:57.180Z,48.94
2022-08-22T14:59:32.834Z,49.86
2022-08-22T15:02:05.961Z,50.91
2022-08-22T15:04:38.037Z,50.80
2022-08-22T15:07:05.415Z,51.15
2022-08-22T15:09:31.986Z,50.63
2022-08-22T15:11:59.383Z,50.94
2022-08-22T15:14:37.553Z,50.65
2022-08-22T15:17:05.707Z,50.34
2022-08-22T15:19:41.452Z,51.30
2022-08-22T15:22:21.872Z,50.21
2022-08-22T15:25:04.861Z,49.32
2022-08-22T15:27:33.431Z,49.21
2022-08-22T15:30:02.557Z,49.51
2022-08-22T15:32:30.474Z,50.36
2022-08-22T15:35:09.382Z,51.06
2022-08-22T15:37:56.154Z,51.55
2022-08-22T15:40:28.768Z,51.25
2022-08-22T15:42:58.256Z,50.62
2022-08-22T15:45:34.027Z,53.49
2022-08-22T15:48:04.531Z,52.84
2022-08-22T15:50:39.890Z,52.81
2022-08-22T15:53:08.578Z,53.47
2022-08-22T15:55:36.699Z,51.17
2022-08-22T15:58:06.562Z,51.09
2022-08-22T16:00:35.952Z,50.65
2022-08-22T16:03:31.123Z,50.88
2022-08-22T16:05:59.036Z,51.39
2022-08-22T16:08:44.369Z,51.38
2022-08-22T16:11:33.064Z,50.62
2022-08-22T16:14:17.364Z,50.84
2022-08-22T16:16:44.972Z,50.42
2022-08-22T16:19:16.836Z,50.70
2022-08-22T16:21:43.325Z,50.54
2022-08-22T16:24:09.768Z,50.21
2022-08-22T16:26:41.365Z,51.14
2022-08-22T16:29:17.290Z,51.90
2022-08-22T16:31:44.612Z,51.32
2022-08-22T16:34:17.248Z,50.09
2022-08-22T16:36:55.758Z,50.49
2022-08-22T16:39:22.236Z,49.98
2022-08-22T16:41:54.260Z,50.15
2022-08-22T16:44:20.777Z,49.44
2022-08-22T16:46:48.565Z,48.73
2022-08-22T16:49:35.276Z,49.02
2022-08-22T16:52:20.889Z,49.11
2022-08-22T16:54:48.777Z,49.56
2022-08-22T16:57:24.173Z,48.87
2022-08-22T17:00:00.610Z,47.58
2022-08-22T17:02:33.364Z,48.15
2022-08-22T17:04:59.903Z,48.92
2022-08-22T17:07:26.443Z,48.90
2022-08-22T17:10:12.187Z,50.89
2022-08-22T17:12:47.157Z,49.33
2022-08-22T17:15:20.482Z,50.16
2022-08-22T17:18:12.151Z,51.30
2022-08-22T17:20:51.258Z,50.28
2022-08-22T17:23:36.596Z,49.43
2022-08-22T17:26:32.337Z,49.12
2022-08-22T17:29:25.282Z,48.21
2022-08-22T17:32:10.197Z,48.76
2022-08-22T17:34:59.367Z,48.26
2022-08-22T17:37:35.951Z,48.56
2022-08-22T17:40:21.510Z,48.30
2022-08-22T17:43:04.143Z,49.20
2022-08-22T17:45:33.442Z,49.19
2022-08-22T17:48:08.974Z,49.35
2022-08-22T17:50:42.616Z,49.13
2022-08-22T17:53:11.826Z,48.01
2022-08-22T17:55:55.381Z,48.94
2022-08-22T17:58:37.596Z,47.72
2022-08-22T18:01:13.874Z,47.39
2022-08-22T18:03:43.480Z,48.63
2022-08-22T18:06:09.921Z,48.80
2022-08-22T18:09:18.310Z,48.98
2022-08-22T18:11:49.905Z,49.53
2022-08-22T18:14:28.401Z,48.00
2022-08-22T18:16:59.023Z,47.85
2022-08-22T18:19:37.761Z,47.91
2022-08-22T18:22:09.505Z,47.50
2022-08-22T18:24:43.347Z,47.04
2022-08-22T18:27:30.032Z,46.91
2022-08-22T18:30:01.969Z,47.83
2022-08-22T18:32:38.796Z,47.58
2022-08-22T18:35:40.793Z,47.28
2022-08-22T18:38:19.528Z,47.08
2022-08-22T18:40:50.387Z,47.64
2022-08-22T18:43:25.995Z,47.28
2022-08-22T18:45:52.482Z,46.16
2022-08-22T18:48:49.460Z,47.04
2022-08-22T18:51:24.851Z,48.14
2022-08-22T18:53:51.570Z,48.25
2022-08-22T18:56:20.870Z,47.84
2022-08-22T18:59:05.311Z,47.70
2022-08-22T19:01:42.192Z,47.68
2022-08-22T19:04:17.419Z,47.86
2022-08-22T19:07:10.133Z,47.88
2022-08-22T19:09:42.994Z,47.95
2022-08-22T19:12:18.346Z,47.80
2022-08-22T19:14:47.605Z,47.40
2022-08-22T19:17:22.711Z,48.28
2022-08-22T19:20:14.579Z,47.92
2022-08-22T19:22:41.171Z,48.04
2022-08-22T19:25:15.294Z,48.02
2022-08-22T19:27:46.953Z,47.35
2022-08-22T19:30:52.061Z,47.64
2022-08-22T19:33:34.598Z,47.98
2022-08-22T19:36:04.446Z,48.87
2022-08-22T19:38:51.286Z,49.15
2022-08-22T19:41:36.433Z,50.16
2022-08-22T19:44:03.820Z,49.91
2022-08-22T19:46:38.132Z,52.57
2022-08-22T19:49:06.385Z,52.34
2022-08-22T19:51:33.695Z,53.64
2022-08-22T19:54:22.254Z,55.18
2022-08-22T19:57:10.052Z,55.10
2022-08-22T20:00:00.257Z,57.15
2022-08-22T20:02:27.129Z,54.86
2022-08-22T20:05:03.476Z,54.65
2022-08-22T20:07:42.331Z,57.90
2022-08-22T20:10:08.804Z,56.91
2022-08-22T20:12:55.577Z,54.72
2022-08-22T20:15:24.454Z,54.06
2022-08-22T20:20:54.987Z,58.72
2022-08-22T20:23:30.009Z,55.60
2022-08-22T20:25:57.737Z,56.10
2022-08-22T20:28:27.280Z,57.51
2022-08-22T20:30:57.542Z,56.64
2022-08-22T20:33:26.735Z,55.13
2022-08-22T20:36:01.462Z,56.49
2022-08-22T20:38:39.474Z,54.78
2022-08-22T20:41:14.287Z,55.77
2022-08-22T20:43:47.294Z,55.68
2022-08-22T20:46:32.677Z,54.42
2022-08-22T20:49:00.823Z,54.40
2022-08-22T20:51:29.656Z,54.54
2022-08-22T20:53:57.692Z,53.90
2022-08-22T20:56:34.620Z,53.83
2022-08-22T20:59:12.584Z,54.54
2022-08-22T21:01:39.231Z,53.67
2022-08-22T21:04:05.841Z,54.52
2022-08-22T21:06:34.874Z,53.71
2022-08-22T21:09:31.444Z,53.57
2022-08-22T21:11:58.861Z,54.07
2022-08-22T21:14:27.009Z,52.96
2022-08-22T21:16:53.626Z,52.83
2022-08-22T21:19:24.306Z,52.50
2022-08-22T21:21:50.858Z,52.74
2022-08-22T21:24:17.800Z,52.44
2022-08-22T21:26:47.327Z,52.60
2022-08-22T21:29:13.841Z,53.48
2022-08-22T21:31:52.329Z,52.82
2022-08-22T21:34:23.828Z,53.51
2022-08-22T21:36:57.839Z,53.99
2022-08-22T21:39:44.674Z,54.12
2022-08-22T21:42:12.645Z,53.70
2022-08-22T21:44:39.123Z,54.41
2022-08-22T21:47:30.627Z,53.88
2022-08-22T21:50:04.129Z,54.17
2022-08-22T21:52:32.406Z,53.55
2022-08-22T21:55:14.378Z,53.90
2022-08-22T21:57:40.854Z,53.98
2022-08-22T22:00:30.998Z,53.59
2022-08-22T22:03:03.591Z,53.55
2022-08-22T22:05:33.874Z,53.54
2022-08-22T22:08:00.690Z,53.17
2022-08-22T22:10:27.467Z,53.53
2022-08-22T22:12:55.563Z,52.78
2022-08-22T22:15:23.966Z,52.73
2022-08-22T22:17:50.466Z,52.88
2022-08-22T22:20:17.865Z,53.58
2022-08-22T22:22:45.977Z,52.57
2022-08-22T22:25:38.881Z,52.36
2022-08-22T22:28:02.837Z,53.01
2022-08-22T22:30:29.561Z,53.91
2022-08-22T22:32:56.042Z,53.38
2022-08-22T22:35:22.534Z,52.89
2022-08-22T22:37:49.134Z,52.86
2022-08-22T22:40:15.746Z,52.53
2022-08-22T22:42:42.721Z,52.79
2022-08-22T22:45:10.689Z,52.82
2022-08-22T22:47:38.076Z,53.00
2022-08-22T22:50:05.580Z,52.87
2022-08-22T22:52:32.121Z,52.81
2022-08-22T22:54:58.692Z,53.13
2022-08-22T22:57:25.835Z,54.37
2022-08-22T22:59:52.386Z,56.07
2022-08-22T23:02:21.397Z,57.82
2022-08-22T23:04:50.872Z,60.44
2022-08-22T23:07:18.465Z,59.19
2022-08-22T23:09:46.409Z,60.82
2022-08-22T23:12:14.002Z,61.50
2022-08-22T23:14:40.543Z,61.98
2022-08-22T23:17:07.062Z,64.29
2022-08-22T23:19:33.761Z,65.08
2022-08-22T23:22:00.978Z,65.65
2022-08-22T23:24:28.402Z,68.14
2022-08-22T23:26:55.434Z,69.46
2022-08-22T23:29:21.941Z,66.57
2022-08-22T23:31:50.197Z,65.18
2022-08-22T23:34:22.680Z,68.01
2022-08-22T23:36:50.049Z,68.81
2022-08-22T23:39:17.218Z,70.82
2022-08-22T23:41:44.937Z,75.36
2022-08-22T23:44:14.281Z,75.05
2022-08-22T23:46:41.641Z,76.14
2022-08-22T23:49:08.303Z,76.51
2022-08-22T23:51:34.892Z,73.67
2022-08-22T23:54:01.967Z,72.84
2022-08-22T23:56:30.816Z,72.21
2022-08-22T23:58:59.021Z,73.40
